Time;durP1;ratioP1;P1;durP2;ratioP2;P2;SDS_P1;SDS_P2;PMS_P1;PMS_P2;Temp;Humidity;BMP_temperature;BMP_pressure;BME280_temperature;BME280_humidity;BME280_pressure;Samples;Min_cycle;Max_cycle;Signal;HPM_P1;HPM_P2
2021/12/21 00:00:54;;;;;;;;;;;-3.90;99.90;;;;;;5107725;28;19919;-88
2021/12/21 00:03:19;;;;;;;;;;;-3.80;99.90;;;;;;5106494;28;19904;-87
2021/12/21 00:05:45;;;;;;;;;;;-3.90;99.90;;;;;;5089571;28;20011;-86
2021/12/21 00:08:12;;;;;;;;;;;-4.00;99.90;;;;;;5106046;28;19910;-87
2021/12/21 00:10:40;;;;;;;;;;;-4.10;99.90;;;;;;5106077;28;19926;-88
2021/12/21 00:13:09;;;;;;;;;;;-3.90;99.90;;;;;;5106735;28;19935;-87
2021/12/21 00:15:52;;;;;;;;;;;-3.80;99.90;;;;;;5106116;28;20048;-89
2021/12/21 00:18:32;;;;;;;;;;;-3.80;99.90;;;;;;5107246;28;20416;-88
2021/12/21 00:23:46;;;;;;;;;;;-3.80;99.90;;;;;;5107141;28;19911;-87
2021/12/21 00:26:13;;;;;;;;;;;-4.00;99.90;;;;;;5106370;28;19904;-86
2021/12/21 00:28:53;;;;;;;;;;;-3.90;99.90;;;;;;5108334;28;19904;-87
2021/12/21 00:31:18;;;;;;;;;;;-3.80;99.90;;;;;;5109181;28;19909;-87
2021/12/21 00:33:46;;;;;;;;;;;-3.80;99.90;;;;;;5110198;28;19915;-87
2021/12/21 00:36:13;;;;;;;;;;;-3.70;99.90;;;;;;5113384;28;19915;-86
2021/12/21 00:38:38;;;;;;;;;;;-3.80;99.90;;;;;;5122825;28;19902;-86
2021/12/21 00:41:04;;;;;;;;;;;-3.70;99.90;;;;;;5122731;28;19908;-88
2021/12/21 00:43:30;;;;;;;;;;;-3.60;99.90;;;;;;5122702;28;19934;-87
2021/12/21 00:45:56;;;;;;;;;;;-3.90;99.90;;;;;;5119379;28;19908;-88
2021/12/21 00:48:27;;;;;;;;;;;-3.90;99.90;;;;;;5093652;28;20244;-87
2021/12/21 00:51:00;;;;;;;;;;;-4.00;99.90;;;;;;5111340;28;19904;-87
2021/12/21 00:53:26;;;;;;;;;;;-3.90;99.90;;;;;;5110203;28;20339;-87
2021/12/21 00:55:52;;;;;;;;;;;-4.00;99.90;;;;;;5110606;28;19930;-86
2021/12/21 00:58:17;;;;;;;;;;;-4.00;99.90;;;;;;5113004;28;19916;-88
2021/12/21 01:00:44;;;;;;;;;;;-4.00;99.90;;;;;;5111616;28;19994;-88
2021/12/21 01:03:12;;;;;;;;;;;-3.90;99.90;;;;;;5112597;28;19911;-88
2021/12/21 01:05:49;;;;;;;;;;;-3.90;99.90;;;;;;5112502;28;19904;-87
2021/12/21 01:08:20;;;;;;;;;;;-3.70;99.90;;;;;;5096887;28;19915;-87
2021/12/21 01:13:38;;;;;;;;;;;-3.70;99.90;;;;;;5113390;28;19911;-88
2021/12/21 01:16:17;;;;;;;;;;;-3.70;99.90;;;;;;5111623;28;19947;-88
2021/12/21 01:19:08;;;;;;;;;;;-3.90;99.90;;;;;;5107053;28;19911;-87
2021/12/21 01:21:42;;;;;;;;;;;-4.20;99.90;;;;;;5107875;28;19912;-87
2021/12/21 01:34:31;;;;;;;;;;;-4.10;99.90;;;;;;5108248;28;19940;-87
2021/12/21 01:37:38;;;;;;;;;;;-4.00;99.90;;;;;;5107701;28;19990;-87
2021/12/21 01:42:48;;;;;;;;;;;-4.20;99.90;;;;;;5109799;28;19904;-88
2021/12/21 01:51:01;;;;;;;;;;;-3.90;99.90;;;;;;5109024;28;20312;-87
2021/12/21 01:53:27;;;;;;;;;;;-4.00;99.90;;;;;;5108390;28;19904;-86
2021/12/21 01:55:53;;;;;;;;;;;-4.10;99.90;;;;;;5107845;28;19915;-86
2021/12/21 01:58:19;;;;;;;;;;;-4.20;99.90;;;;;;5091835;28;19920;-88
2021/12/21 02:00:45;;;;;;;;;;;-4.30;99.90;;;;;;5107455;28;19908;-87
2021/12/21 02:03:10;;;;;;;;;;;-4.40;99.90;;;;;;5107791;28;19950;-87
2021/12/21 02:05:37;;;;;;;;;;;-4.40;99.90;;;;;;5090437;28;20270;-88
2021/12/21 02:08:03;;;;;;;;;;;-4.30;99.90;;;;;;5107184;28;19908;-88
2021/12/21 02:10:29;;;;;;;;;;;-4.20;99.90;;;;;;5108643;28;20355;-88
2021/12/21 02:12:55;;;;;;;;;;;-4.30;99.90;;;;;;5091189;28;19930;-87
2021/12/21 02:15:20;;;;;;;;;;;-4.20;99.90;;;;;;5107565;28;20267;-86
2021/12/21 02:23:05;;;;;;;;;;;-4.40;99.90;;;;;;5111088;28;20002;-88
2021/12/21 02:30:48;;;;;;;;;;;-4.60;99.90;;;;;;5109371;28;19930;-86
2021/12/21 02:33:14;;;;;;;;;;;-4.50;99.90;;;;;;5109606;28;19911;-88
2021/12/21 02:35:40;;;;;;;;;;;-4.50;99.90;;;;;;5110408;28;19908;-87
2021/12/21 02:38:06;;;;;;;;;;;-4.50;99.90;;;;;;5107512;28;19904;-87
2021/12/21 02:40:32;;;;;;;;;;;-4.50;99.90;;;;;;5107260;28;19969;-87
2021/12/21 02:42:58;;;;;;;;;;;-4.60;99.90;;;;;;5105870;28;19904;-87
2021/12/21 02:45:24;;;;;;;;;;;-4.60;99.90;;;;;;5105399;28;19929;-87
2021/12/21 02:47:49;;;;;;;;;;;-4.70;99.90;;;;;;5104434;28;20370;-86
2021/12/21 02:50:15;;;;;;;;;;;-4.80;99.90;;;;;;5104938;28;19904;-87
2021/12/21 02:52:41;;;;;;;;;;;-4.70;99.90;;;;;;5105271;28;19904;-87
2021/12/21 02:55:07;;;;;;;;;;;-4.80;99.90;;;;;;5105857;28;19943;-86
2021/12/21 02:57:33;;;;;;;;;;;-4.80;99.90;;;;;;5104625;28;19932;-87
2021/12/21 03:00:01;;;;;;;;;;;-4.80;99.90;;;;;;5104740;28;19968;-87
2021/12/21 03:02:27;;;;;;;;;;;-4.70;99.90;;;;;;5103043;28;19909;-87
2021/12/21 03:04:52;;;;;;;;;;;-4.70;99.90;;;;;;5104784;28;19986;-87
2021/12/21 03:08:22;;;;;;;;;;;-4.60;99.90;;;;;;5104815;28;19954;-87
2021/12/21 03:10:16;;;;;;;;;;;-4.60;99.90;;;;;;5092085;28;20352;-87
2021/12/21 03:15:20;;;;;;;;;;;-4.80;99.90;;;;;;5106420;28;19908;-88
2021/12/21 03:17:46;;;;;;;;;;;-4.70;99.90;;;;;;5106329;28;19911;-87
2021/12/21 03:20:12;;;;;;;;;;;-4.70;99.90;;;;;;5106788;28;19903;-87
2021/12/21 03:22:37;;;;;;;;;;;-4.60;99.90;;;;;;5105463;28;19967;-87
2021/12/21 03:25:03;;;;;;;;;;;-4.60;99.90;;;;;;5106486;28;19973;-86
2021/12/21 03:27:29;;;;;;;;;;;-4.60;99.90;;;;;;5106336;28;19990;-87
2021/12/21 03:29:55;;;;;;;;;;;-4.50;99.90;;;;;;5105727;28;19912;-86
2021/12/21 03:32:20;;;;;;;;;;;-4.70;99.90;;;;;;5104995;28;19908;-86
2021/12/21 03:34:46;;;;;;;;;;;-4.60;99.90;;;;;;5104779;28;19908;-86
2021/12/21 03:37:14;;;;;;;;;;;-4.60;99.90;;;;;;5107623;28;19910;-87
2021/12/21 03:39:41;;;;;;;;;;;-4.70;99.90;;;;;;5106481;28;19903;-87
2021/12/21 03:42:07;;;;;;;;;;;-4.80;99.90;;;;;;5103566;28;19954;-88
2021/12/21 03:44:32;;;;;;;;;;;-4.70;99.90;;;;;;5102998;28;19904;-88
2021/12/21 03:46:58;;;;;;;;;;;-4.60;99.90;;;;;;5087102;28;19908;-86
2021/12/21 03:52:02;;;;;;;;;;;-4.70;99.90;;;;;;5107175;28;20007;-86
2021/12/21 03:54:27;;;;;;;;;;;-4.80;99.90;;;;;;5105888;28;19938;-87
2021/12/21 03:56:53;;;;;;;;;;;-4.60;99.90;;;;;;5105427;28;19904;-88
2021/12/21 03:59:21;;;;;;;;;;;-4.60;99.90;;;;;;5105251;28;20434;-87
2021/12/21 04:01:47;;;;;;;;;;;-4.60;99.90;;;;;;5094079;28;19908;-87
2021/12/21 04:04:14;;;;;;;;;;;-4.60;99.90;;;;;;5104140;28;20398;-86
2021/12/21 04:06:39;;;;;;;;;;;-4.40;99.90;;;;;;5105351;28;19911;-87
2021/12/21 04:09:06;;;;;;;;;;;-4.40;99.90;;;;;;5106352;28;19904;-87
2021/12/21 04:11:32;;;;;;;;;;;-4.30;99.90;;;;;;5088597;28;19908;-86
2021/12/21 04:13:59;;;;;;;;;;;-4.30;99.90;;;;;;5103282;28;19950;-87
2021/12/21 04:16:25;;;;;;;;;;;-4.40;99.90;;;;;;5085808;28;19961;-87
2021/12/21 04:18:50;;;;;;;;;;;-4.20;99.90;;;;;;5101629;28;19904;-88
2021/12/21 04:21:16;;;;;;;;;;;-4.10;99.90;;;;;;5099515;28;19953;-87
2021/12/21 04:23:42;;;;;;;;;;;-4.00;99.90;;;;;;5100992;28;20378;-87
2021/12/21 04:26:09;;;;;;;;;;;-3.90;99.90;;;;;;5101843;28;19910;-88
2021/12/21 04:28:35;;;;;;;;;;;-3.90;99.90;;;;;;5102994;28;19910;-87
2021/12/21 04:31:01;;;;;;;;;;;-4.00;99.90;;;;;;5095040;28;20382;-87
2021/12/21 04:33:26;;;;;;;;;;;-4.00;99.90;;;;;;5101870;28;19904;-88
2021/12/21 04:35:52;;;;;;;;;;;-4.10;99.90;;;;;;5101724;28;19935;-87
2021/12/21 04:38:22;;;;;;;;;;;-4.00;99.90;;;;;;5102810;28;19911;-87
2021/12/21 04:40:52;;;;;;;;;;;-4.10;99.90;;;;;;5101483;28;19904;-86
2021/12/21 04:43:18;;;;;;;;;;;-4.10;99.90;;;;;;5103242;28;19903;-87
2021/12/21 04:45:43;;;;;;;;;;;-4.00;99.90;;;;;;5102970;28;19915;-87
2021/12/21 04:48:09;;;;;;;;;;;-3.90;99.90;;;;;;5085865;28;19950;-87
2021/12/21 04:50:35;;;;;;;;;;;-3.80;99.90;;;;;;5103980;28;19908;-87
2021/12/21 04:53:00;;;;;;;;;;;-3.80;99.90;;;;;;5104166;28;19904;-87
2021/12/21 04:55:26;;;;;;;;;;;-3.80;99.90;;;;;;5105183;28;19953;-87
2021/12/21 04:57:51;;;;;;;;;;;-3.90;99.90;;;;;;5106977;28;19938;-87
2021/12/21 05:00:17;;;;;;;;;;;-3.90;99.90;;;;;;5103840;28;19910;-87
2021/12/21 05:02:43;;;;;;;;;;;-3.90;99.90;;;;;;5103624;28;19911;-87
2021/12/21 05:05:08;;;;;;;;;;;-3.90;99.90;;;;;;5104055;28;19918;-88
2021/12/21 05:07:36;;;;;;;;;;;-3.80;99.90;;;;;;5104225;28;19941;-87
2021/12/21 05:10:04;;;;;;;;;;;-3.70;99.90;;;;;;5104717;28;19994;-87
2021/12/21 05:12:30;;;;;;;;;;;-3.70;99.90;;;;;;5106826;28;19926;-87
2021/12/21 05:14:56;;;;;;;;;;;-3.70;99.90;;;;;;5111254;28;19968;-88
2021/12/21 05:17:22;;;;;;;;;;;-3.80;99.90;;;;;;5112663;28;19938;-87
2021/12/21 05:19:48;;;;;;;;;;;-3.90;99.90;;;;;;5108484;28;19904;-87
2021/12/21 05:22:15;;;;;;;;;;;-4.00;99.90;;;;;;5109995;28;19930;-88
2021/12/21 05:24:41;;;;;;;;;;;-3.90;99.90;;;;;;5111812;28;19904;-87
2021/12/21 05:27:07;;;;;;;;;;;-3.80;99.90;;;;;;5113276;28;19904;-87
2021/12/21 05:29:33;;;;;;;;;;;-3.70;99.90;;;;;;5097419;28;20366;-88
2021/12/21 05:31:59;;;;;;;;;;;-3.70;99.90;;;;;;5113400;28;19908;-87
2021/12/21 05:34:25;;;;;;;;;;;-3.60;99.90;;;;;;5096687;28;19952;-87
2021/12/21 05:36:51;;;;;;;;;;;-3.60;99.90;;;;;;5108903;28;19912;-87
2021/12/21 05:39:21;;;;;;;;;;;-3.70;99.90;;;;;;5110905;28;19978;-88
2021/12/21 05:41:51;;;;;;;;;;;-3.70;99.90;;;;;;5108435;28;19904;-86
2021/12/21 05:44:20;;;;;;;;;;;-3.80;99.90;;;;;;5103693;28;19950;-87
2021/12/21 05:46:46;;;;;;;;;;;-3.70;99.90;;;;;;5104331;28;19911;-87
2021/12/21 05:49:12;;;;;;;;;;;-3.60;99.90;;;;;;5104550;28;19904;-89
2021/12/21 05:51:37;;;;;;;;;;;-3.50;99.90;;;;;;5103321;28;19912;-87
2021/12/21 05:54:03;;;;;;;;;;;-3.50;99.90;;;;;;5105029;28;19904;-87
2021/12/21 05:56:28;;;;;;;;;;;-3.40;99.90;;;;;;5106504;28;19908;-87
2021/12/21 05:58:54;;;;;;;;;;;-3.40;99.90;;;;;;5104554;28;19927;-88
2021/12/21 06:01:20;;;;;;;;;;;-3.50;99.90;;;;;;5103941;28;19908;-88
2021/12/21 06:03:45;;;;;;;;;;;-3.50;99.90;;;;;;5087395;28;20426;-88
2021/12/21 06:06:14;;;;;;;;;;;-3.50;99.90;;;;;;5106493;28;19942;-87
2021/12/21 06:08:41;;;;;;;;;;;-3.50;99.90;;;;;;5108423;28;20000;-87
2021/12/21 06:11:07;;;;;;;;;;;-3.60;99.90;;;;;;5109121;28;20369;-88
2021/12/21 06:25:21;;;;;;;;;;;-3.30;99.90;;;;;;5108924;28;19911;-89
2021/12/21 06:27:13;;;;;;;;;;;-3.50;99.90;;;;;;5109498;28;19908;-87
2021/12/21 06:29:39;;;;;;;;;;;-3.50;99.90;;;;;;5110130;28;19911;-88
2021/12/21 06:32:05;;;;;;;;;;;-3.40;99.90;;;;;;5109083;28;19908;-88
2021/12/21 06:34:30;;;;;;;;;;;-3.30;99.90;;;;;;5107216;28;19957;-87
2021/12/21 06:36:56;;;;;;;;;;;-3.20;99.90;;;;;;5090306;28;19908;-87
2021/12/21 06:39:22;;;;;;;;;;;-3.20;99.90;;;;;;5107184;28;19911;-87
2021/12/21 06:41:47;;;;;;;;;;;-3.30;99.90;;;;;;5089445;28;19908;-88
2021/12/21 06:44:15;;;;;;;;;;;-3.20;99.90;;;;;;5108847;28;19911;-89
2021/12/21 06:47:04;;;;;;;;;;;-3.10;99.90;;;;;;5106678;28;20317;-87
2021/12/21 06:52:13;;;;;;;;;;;-3.30;99.90;;;;;;5107234;28;20436;-88
2021/12/21 06:54:39;;;;;;;;;;;-3.30;99.90;;;;;;5105827;28;19905;-87
2021/12/21 06:57:05;;;;;;;;;;;-3.40;99.90;;;;;;5088911;28;19943;-87
2021/12/21 06:59:30;;;;;;;;;;;-3.40;99.90;;;;;;5105500;28;19947;-88
2021/12/21 07:01:56;;;;;;;;;;;-3.40;99.90;;;;;;5105201;28;19935;-87
2021/12/21 07:04:22;;;;;;;;;;;-3.40;99.90;;;;;;5106740;28;19946;-88
2021/12/21 07:06:50;;;;;;;;;;;-3.30;99.90;;;;;;5106876;28;19927;-88
2021/12/21 07:09:25;;;;;;;;;;;-3.20;99.90;;;;;;5106113;28;19950;-87
2021/12/21 07:12:08;;;;;;;;;;;-3.00;99.90;;;;;;5108278;28;19908;-88
2021/12/21 07:18:05;;;;;;;;;;;-3.10;99.90;;;;;;5106742;28;19957;-89
2021/12/21 07:20:18;;;;;;;;;;;-3.20;99.90;;;;;;5106930;28;19904;-87
2021/12/21 07:22:44;;;;;;;;;;;-3.20;99.90;;;;;;5106220;28;19908;-88
2021/12/21 07:25:09;;;;;;;;;;;-3.30;99.90;;;;;;5105952;28;19929;-87
2021/12/21 07:27:35;;;;;;;;;;;-3.20;99.90;;;;;;5105851;28;19908;-87
2021/12/21 07:30:01;;;;;;;;;;;-3.00;99.90;;;;;;5104499;28;19908;-88
2021/12/21 07:32:26;;;;;;;;;;;-2.90;99.90;;;;;;5104066;28;19908;-87
2021/12/21 07:34:52;;;;;;;;;;;-2.90;99.90;;;;;;5103452;28;19915;-87
2021/12/21 07:37:18;;;;;;;;;;;-2.90;99.90;;;;;;5102787;28;19957;-88
2021/12/21 07:39:44;;;;;;;;;;;-2.90;99.90;;;;;;5101335;28;19908;-88
2021/12/21 07:42:09;;;;;;;;;;;-3.00;99.90;;;;;;5102244;28;19904;-88
2021/12/21 07:44:35;;;;;;;;;;;-3.10;99.90;;;;;;5100243;28;19911;-88
2021/12/21 07:47:01;;;;;;;;;;;-3.10;99.90;;;;;;5099511;28;19908;-88
2021/12/21 07:49:26;;;;;;;;;;;-3.00;99.90;;;;;;5097275;28;19971;-87
2021/12/21 07:51:52;;;;;;;;;;;-3.00;99.90;;;;;;5097615;28;19914;-87
2021/12/21 07:54:18;;;;;;;;;;;-3.00;99.90;;;;;;5080638;28;20274;-87
2021/12/21 07:56:46;;;;;;;;;;;-2.80;99.90;;;;;;5097291;28;19969;-87
2021/12/21 07:59:13;;;;;;;;;;;-2.60;99.90;;;;;;5099489;28;19920;-87
2021/12/21 08:01:39;;;;;;;;;;;-2.50;99.90;;;;;;5096793;27;19912;-87
2021/12/21 08:04:07;;;;;;;;;;;-2.50;99.90;;;;;;5099378;28;19950;-88
2021/12/21 08:06:33;;;;;;;;;;;-2.70;99.90;;;;;;5097742;28;19951;-88
2021/12/21 08:09:01;;;;;;;;;;;-2.60;99.90;;;;;;5097597;28;19888;-88
2021/12/21 08:12:12;;;;;;;;;;;-2.70;99.90;;;;;;5078068;28;20003;-89
2021/12/21 08:14:15;;;;;;;;;;;-2.70;99.90;;;;;;5080178;28;19911;-87
2021/12/21 08:16:40;;;;;;;;;;;-2.70;99.90;;;;;;5078218;28;19908;-89
2021/12/21 08:19:06;;;;;;;;;;;-2.60;99.90;;;;;;5079228;28;19904;-86
2021/12/21 08:21:32;;;;;;;;;;;-2.60;99.90;;;;;;5062457;28;19943;-88
2021/12/21 08:23:57;;;;;;;;;;;-2.50;99.90;;;;;;5081068;28;19988;-89
2021/12/21 08:26:23;;;;;;;;;;;-2.40;99.90;;;;;;5064277;28;19908;-88
2021/12/21 08:28:49;;;;;;;;;;;-2.30;99.90;;;;;;5081382;28;19926;-88
2021/12/21 08:31:14;;;;;;;;;;;-2.20;99.90;;;;;;5082047;28;19909;-87
2021/12/21 08:33:41;;;;;;;;;;;-2.30;99.90;;;;;;5082949;28;20352;-88
2021/12/21 08:36:10;;;;;;;;;;;-2.30;99.90;;;;;;5077993;28;19908;-87
2021/12/21 08:38:41;;;;;;;;;;;-2.50;99.90;;;;;;5077017;28;19911;-88
2021/12/21 08:41:07;;;;;;;;;;;-2.40;99.90;;;;;;5076249;28;19908;-88
2021/12/21 08:43:35;;;;;;;;;;;-2.20;99.90;;;;;;5077932;28;19911;-88
2021/12/21 08:46:00;;;;;;;;;;;-2.30;99.90;;;;;;5062036;28;19908;-87
2021/12/21 08:48:27;;;;;;;;;;;-2.20;99.90;;;;;;5076913;28;20263;-89
2021/12/21 08:50:54;;;;;;;;;;;-2.10;99.90;;;;;;5077157;28;19904;-87
2021/12/21 08:53:21;;;;;;;;;;;-2.30;99.90;;;;;;5076905;28;20277;-87
2021/12/21 08:55:46;;;;;;;;;;;-2.30;99.90;;;;;;5076939;28;19909;-86
2021/12/21 08:58:13;;;;;;;;;;;-2.30;99.90;;;;;;5080417;28;20042;-88
2021/12/21 09:00:40;;;;;;;;;;;-2.30;99.90;;;;;;5063507;28;19913;-87
2021/12/21 09:03:06;;;;;;;;;;;-2.30;99.90;;;;;;5080648;28;19909;-89
2021/12/21 09:05:33;;;;;;;;;;;-2.30;99.90;;;;;;5081476;28;19904;-88
2021/12/21 09:08:00;;;;;;;;;;;-2.10;99.90;;;;;;5081610;28;19991;-89
2021/12/21 09:10:28;;;;;;;;;;;-2.00;99.90;;;;;;5081213;28;19954;-87
2021/12/21 09:12:54;;;;;;;;;;;-1.90;99.90;;;;;;5080944;28;19916;-88
2021/12/21 09:15:20;;;;;;;;;;;-2.00;99.90;;;;;;5083596;28;20263;-87
2021/12/21 09:17:46;;;;;;;;;;;-2.10;99.90;;;;;;5082891;28;19992;-87
2021/12/21 09:20:13;;;;;;;;;;;-2.00;99.90;;;;;;5081898;28;20310;-87
2021/12/21 09:22:40;;;;;;;;;;;-2.20;99.90;;;;;;5083926;28;19904;-87
2021/12/21 09:25:06;;;;;;;;;;;-2.20;99.90;;;;;;5088345;28;19904;-87
2021/12/21 09:27:34;;;;;;;;;;;-2.10;99.90;;;;;;5092652;28;19979;-88
2021/12/21 09:30:00;;;;;;;;;;;-1.90;99.90;;;;;;5107493;28;20351;-87
2021/12/21 09:32:26;;;;;;;;;;;-1.70;99.90;;;;;;5105837;28;19915;-88
2021/12/21 09:34:52;;;;;;;;;;;-1.50;99.90;;;;;;5101474;28;19954;-88
2021/12/21 09:37:23;;;;;;;;;;;-1.30;99.90;;;;;;5100575;28;19904;-89
2021/12/21 09:39:53;;;;;;;;;;;-1.40;99.90;;;;;;5099146;28;19911;-89
2021/12/21 09:42:21;;;;;;;;;;;-1.50;99.90;;;;;;5083682;28;20371;-88
2021/12/21 09:44:47;;;;;;;;;;;-1.50;99.90;;;;;;5098249;28;19953;-88
2021/12/21 09:47:13;;;;;;;;;;;-1.50;99.90;;;;;;5098014;28;19908;-88
2021/12/21 09:49:39;;;;;;;;;;;-1.50;99.90;;;;;;5097898;28;19904;-87
2021/12/21 09:52:06;;;;;;;;;;;-1.60;99.90;;;;;;5098503;28;19904;-89
2021/12/21 09:54:33;;;;;;;;;;;-1.60;99.90;;;;;;5081413;28;19931;-89
2021/12/21 09:56:58;;;;;;;;;;;-1.60;99.90;;;;;;5098100;28;19923;-90
2021/12/21 09:59:25;;;;;;;;;;;-1.60;99.90;;;;;;5078117;28;19916;-87
2021/12/21 10:01:50;;;;;;;;;;;-1.50;99.90;;;;;;5078487;28;19981;-87
2021/12/21 10:04:17;;;;;;;;;;;-1.40;99.90;;;;;;5091317;28;20362;-87
2021/12/21 10:06:47;;;;;;;;;;;-1.20;99.90;;;;;;5097462;28;19904;-86
2021/12/21 10:09:13;;;;;;;;;;;-1.10;99.90;;;;;;5096003;28;19904;-87
2021/12/21 10:11:43;;;;;;;;;;;-0.90;99.90;;;;;;5096096;28;19957;-86
2021/12/21 10:14:09;;;;;;;;;;;-1.00;99.90;;;;;;5062697;28;19912;-87
2021/12/21 10:16:34;;;;;;;;;;;-1.20;99.90;;;;;;5075843;28;19931;-87
2021/12/21 10:19:00;;;;;;;;;;;-0.90;99.90;;;;;;5070039;28;19912;-86
2021/12/21 10:21:26;;;;;;;;;;;-0.90;99.90;;;;;;5079048;28;19908;-87
2021/12/21 10:23:51;;;;;;;;;;;-1.00;99.90;;;;;;5096626;28;19904;-87
2021/12/21 10:26:22;;;;;;;;;;;-0.90;99.90;;;;;;5080345;28;19978;-87
2021/12/21 10:28:56;;;;;;;;;;;-0.90;99.90;;;;;;5078725;28;19904;-87
2021/12/21 10:31:27;;;;;;;;;;;-1.10;99.90;;;;;;5078684;28;19915;-87
2021/12/21 10:33:53;;;;;;;;;;;-1.20;99.90;;;;;;5078193;28;19908;-86
2021/12/21 10:36:18;;;;;;;;;;;-1.20;99.90;;;;;;5077347;28;19908;-85
2021/12/21 10:38:54;;;;;;;;;;;-1.30;99.90;;;;;;5077843;28;19914;-88
2021/12/21 10:41:36;;;;;;;;;;;-1.30;99.90;;;;;;5097453;28;19904;-87
2021/12/21 10:44:06;;;;;;;;;;;-1.20;99.90;;;;;;5078736;28;19910;-89
2021/12/21 10:46:33;;;;;;;;;;;-0.90;99.90;;;;;;5076388;28;19908;-86
2021/12/21 10:49:04;;;;;;;;;;;-0.80;99.90;;;;;;5075263;28;20314;-85
2021/12/21 10:51:30;;;;;;;;;;;-0.70;99.90;;;;;;5074725;28;19957;-87
2021/12/21 10:53:56;;;;;;;;;;;-0.60;99.90;;;;;;5074516;28;19995;-89
2021/12/21 10:56:21;;;;;;;;;;;-0.70;99.90;;;;;;5074955;28;20001;-88
2021/12/21 10:58:47;;;;;;;;;;;-0.80;99.90;;;;;;5074289;28;19923;-91
2021/12/21 11:01:15;;;;;;;;;;;-0.80;99.90;;;;;;5074897;28;20379;-88
2021/12/21 11:03:48;;;;;;;;;;;-1.00;99.90;;;;;;5095720;28;20315;-87
2021/12/21 11:06:22;;;;;;;;;;;-0.90;99.90;;;;;;5094599;28;20023;-87
2021/12/21 11:08:51;;;;;;;;;;;-1.00;99.90;;;;;;5096348;28;19908;-88
2021/12/21 11:11:24;;;;;;;;;;;-0.90;99.90;;;;;;5080333;28;19958;-88
2021/12/21 11:14:04;;;;;;;;;;;-0.90;99.90;;;;;;5096228;28;19908;-89
2021/12/21 11:16:40;;;;;;;;;;;-1.00;99.90;;;;;;5100272;28;19908;-87
2021/12/21 11:19:06;;;;;;;;;;;-0.90;99.90;;;;;;5101837;28;19999;-88
2021/12/21 11:21:33;;;;;;;;;;;-1.00;99.90;;;;;;5100663;28;19926;-87
2021/12/21 11:24:01;;;;;;;;;;;-1.10;99.90;;;;;;5099782;28;20326;-89
2021/12/21 11:26:27;;;;;;;;;;;-0.90;99.90;;;;;;5097175;28;20006;-87
2021/12/21 11:28:54;;;;;;;;;;;-0.80;99.90;;;;;;5095921;28;19904;-88
2021/12/21 11:31:20;;;;;;;;;;;-1.00;99.90;;;;;;5090550;28;19957;-87
2021/12/21 11:33:47;;;;;;;;;;;-0.80;99.90;;;;;;5076295;28;20376;-89
2021/12/21 11:38:58;;;;;;;;;;;-0.80;99.90;;;;;;5098830;28;19915;-87
2021/12/21 11:41:24;;;;;;;;;;;-0.80;99.90;;;;;;5096923;28;19904;-86
2021/12/21 11:44:08;;;;;;;;;;;-0.80;99.90;;;;;;5096187;28;19904;-89
2021/12/21 11:46:51;;;;;;;;;;;-0.80;99.90;;;;;;5095645;28;19915;-87
2021/12/21 11:49:22;;;;;;;;;;;-0.70;99.90;;;;;;5095487;28;19904;-86
2021/12/21 11:51:47;;;;;;;;;;;-0.80;99.90;;;;;;5095237;28;19926;-87
2021/12/21 11:54:15;;;;;;;;;;;-0.60;99.90;;;;;;5094788;28;19930;-88
2021/12/21 11:56:40;;;;;;;;;;;-0.50;99.90;;;;;;5077326;28;20370;-85
2021/12/21 11:59:06;;;;;;;;;;;-0.60;99.90;;;;;;5094256;28;19907;-87
2021/12/21 12:01:32;;;;;;;;;;;-0.60;99.90;;;;;;5094000;28;19974;-88
2021/12/21 12:04:04;;;;;;;;;;;-0.50;99.90;;;;;;5095837;28;19912;-86
2021/12/21 12:06:42;;;;;;;;;;;-0.50;99.90;;;;;;5096300;28;19939;-86
2021/12/21 12:09:08;;;;;;;;;;;-0.70;99.90;;;;;;5095929;28;19911;-89
2021/12/21 12:11:39;;;;;;;;;;;-0.60;99.90;;;;;;5078587;28;20275;-87
2021/12/21 12:14:09;;;;;;;;;;;-0.60;99.90;;;;;;5078698;28;19919;-87
2021/12/21 12:16:48;;;;;;;;;;;-0.80;99.90;;;;;;5095004;28;19992;-89
2021/12/21 12:19:43;;;;;;;;;;;-0.70;99.90;;;;;;5074721;28;19908;-88
2021/12/21 12:22:12;;;;;;;;;;;-0.60;99.90;;;;;;5089377;28;19915;-88
2021/12/21 12:24:39;;;;;;;;;;;-0.90;99.90;;;;;;5091617;28;20001;-88
2021/12/21 12:27:26;;;;;;;;;;;-0.80;99.90;;;;;;5094953;28;19908;-91
2021/12/21 12:29:53;;;;;;;;;;;-0.80;99.90;;;;;;5074335;28;19904;-86
2021/12/21 12:32:34;;;;;;;;;;;-0.70;99.90;;;;;;5089756;28;20435;-86
2021/12/21 12:35:06;;;;;;;;;;;-0.70;99.90;;;;;;5073080;28;20280;-88
2021/12/21 12:37:32;;;;;;;;;;;-0.90;99.90;;;;;;5057092;28;20363;-86
2021/12/21 12:40:05;;;;;;;;;;;-0.80;99.90;;;;;;5091391;28;19934;-87
2021/12/21 12:42:33;;;;;;;;;;;-0.90;99.90;;;;;;5090317;28;19904;-88
2021/12/21 12:45:19;;;;;;;;;;;-1.00;99.90;;;;;;5071642;28;19908;-87
2021/12/21 12:47:49;;;;;;;;;;;-0.90;99.90;;;;;;5094128;28;19985;-88
2021/12/21 12:50:18;;;;;;;;;;;-0.80;99.90;;;;;;5060186;28;19931;-88
2021/12/21 12:52:51;;;;;;;;;;;-0.80;99.90;;;;;;5074066;28;19904;-87
2021/12/21 12:55:17;;;;;;;;;;;-0.70;99.90;;;;;;5073133;28;20008;-87
2021/12/21 12:57:53;;;;;;;;;;;-0.70;99.90;;;;;;5072634;28;19967;-87
2021/12/21 13:00:21;;;;;;;;;;;-0.60;99.90;;;;;;5072217;28;19904;-87
2021/12/21 13:03:07;;;;;;;;;;;-0.60;99.90;;;;;;5056007;28;19908;-91
2021/12/21 13:05:37;;;;;;;;;;;-0.60;99.90;;;;;;5072825;28;19991;-87
2021/12/21 13:08:14;;;;;;;;;;;-0.50;99.90;;;;;;5072733;28;19905;-87
2021/12/21 13:10:41;;;;;;;;;;;-0.80;99.90;;;;;;5073055;28;19904;-86
2021/12/21 13:13:07;;;;;;;;;;;-0.70;99.90;;;;;;5056270;28;19908;-85
2021/12/21 13:15:41;;;;;;;;;;;-0.60;99.90;;;;;;5073379;28;20263;-88
2021/12/21 13:18:08;;;;;;;;;;;-0.70;99.90;;;;;;5072984;28;19911;-87
2021/12/21 13:20:35;;;;;;;;;;;-0.50;99.90;;;;;;5067093;28;20049;-88
2021/12/21 13:23:10;;;;;;;;;;;-0.60;99.90;;;;;;5092952;28;19904;-87
2021/12/21 13:25:36;;;;;;;;;;;-0.50;99.90;;;;;;5093061;28;20420;-88
2021/12/21 13:28:12;;;;;;;;;;;-0.60;99.90;;;;;;5094945;28;19904;-87
2021/12/21 13:30:44;;;;;;;;;;;-0.70;99.90;;;;;;5092804;28;20386;-87
2021/12/21 13:33:09;;;;;;;;;;;-0.80;99.90;;;;;;5072667;28;19908;-87
2021/12/21 13:35:41;;;;;;;;;;;-0.70;99.90;;;;;;5072440;28;19915;-90
2021/12/21 13:38:13;;;;;;;;;;;-0.60;99.90;;;;;;5083478;28;19908;-87
2021/12/21 13:40:38;;;;;;;;;;;-0.50;99.90;;;;;;5092846;28;19904;-87
2021/12/21 13:43:10;;;;;;;;;;;-0.40;99.90;;;;;;5076415;28;19911;-88
2021/12/21 13:45:36;;;;;;;;;;;-0.40;99.90;;;;;;5097217;28;19904;-89
2021/12/21 13:48:02;;;;;;;;;;;-0.40;99.90;;;;;;5092613;28;20286;-87
2021/12/21 13:50:27;;;;;;;;;;;-0.60;99.90;;;;;;5096438;28;20325;-87
2021/12/21 13:52:55;;;;;;;;;;;-0.50;99.90;;;;;;5096876;28;19933;-88
2021/12/21 13:55:21;;;;;;;;;;;-0.50;99.90;;;;;;5096890;28;20294;-87
2021/12/21 13:57:47;;;;;;;;;;;-0.60;99.90;;;;;;5096718;28;19923;-87
2021/12/21 14:00:13;;;;;;;;;;;-0.70;99.90;;;;;;5098025;28;19947;-86
2021/12/21 14:02:42;;;;;;;;;;;-0.90;99.90;;;;;;5080399;28;20386;-89
2021/12/21 14:05:09;;;;;;;;;;;-1.00;99.90;;;;;;5082774;28;19908;-88
2021/12/21 14:07:38;;;;;;;;;;;-0.80;99.90;;;;;;5097413;28;19989;-87
2021/12/21 14:10:06;;;;;;;;;;;-0.80;99.90;;;;;;5088587;28;19909;-86
2021/12/21 14:12:31;;;;;;;;;;;-0.80;99.90;;;;;;5099494;28;19911;-88
2021/12/21 14:14:57;;;;;;;;;;;-0.90;99.90;;;;;;5104839;28;19957;-86
2021/12/21 14:17:25;;;;;;;;;;;-1.10;99.90;;;;;;5123104;28;19915;-87
2021/12/21 14:19:54;;;;;;;;;;;-1.20;99.90;;;;;;5102571;28;19947;-87
2021/12/21 14:22:21;;;;;;;;;;;-1.30;99.90;;;;;;5094021;28;19975;-86
2021/12/21 14:24:48;;;;;;;;;;;-1.10;99.90;;;;;;5094768;28;19908;-87
2021/12/21 14:27:14;;;;;;;;;;;-1.10;99.90;;;;;;5089679;28;20386;-86
2021/12/21 14:29:42;;;;;;;;;;;-1.10;99.90;;;;;;5069839;28;20000;-86
2021/12/21 14:34:36;;;;;;;;;;;-1.00;99.90;;;;;;5078327;28;20011;-87
2021/12/21 14:37:05;;;;;;;;;;;-1.20;99.90;;;;;;5092582;28;19908;-87
2021/12/21 14:39:31;;;;;;;;;;;-1.20;99.90;;;;;;5096305;28;19904;-86
2021/12/21 14:41:59;;;;;;;;;;;-1.30;99.90;;;;;;5092861;28;19904;-86
2021/12/21 14:44:25;;;;;;;;;;;-1.30;99.90;;;;;;5059837;28;20453;-88
2021/12/21 14:47:00;;;;;;;;;;;-1.20;99.90;;;;;;5090489;28;19961;-87
2021/12/21 14:49:50;;;;;;;;;;;-1.10;99.90;;;;;;5077938;28;19948;-87
2021/12/21 14:52:24;;;;;;;;;;;-1.00;99.90;;;;;;5102586;27;19908;-89
2021/12/21 14:54:59;;;;;;;;;;;-1.00;99.90;;;;;;5084106;28;19912;-88
2021/12/21 14:57:32;;;;;;;;;;;-1.20;99.90;;;;;;5078064;28;19921;-88
2021/12/21 14:59:58;;;;;;;;;;;-1.30;99.90;;;;;;5076570;28;19912;-89
2021/12/21 15:04:59;;;;;;;;;;;-1.40;99.90;;;;;;5096621;28;19915;-87
2021/12/21 15:07:25;;;;;;;;;;;-1.40;99.90;;;;;;5081770;28;19953;-86
2021/12/21 15:09:51;;;;;;;;;;;-1.50;99.90;;;;;;5076465;28;20003;-87
2021/12/21 15:12:17;;;;;;;;;;;-1.40;99.90;;;;;;5092387;28;19911;-88
2021/12/21 15:14:43;;;;;;;;;;;-1.40;99.90;;;;;;5096042;28;19927;-88
2021/12/21 15:17:09;;;;;;;;;;;-1.30;99.90;;;;;;5097364;28;20347;-86
2021/12/21 15:19:34;;;;;;;;;;;-1.30;99.90;;;;;;5096330;28;19915;-87
2021/12/21 15:22:00;;;;;;;;;;;-1.20;99.90;;;;;;5080985;28;19908;-88
2021/12/21 15:24:25;;;;;;;;;;;-1.30;99.90;;;;;;5097225;28;19904;-87
2021/12/21 15:26:51;;;;;;;;;;;-1.30;99.90;;;;;;5097524;28;20266;-86